Terminal Aerodrome Forecast
Issued by NWS

Home | Current Version | Previous Version | Text Only | Print | Product List | Glossary On
Versions: 1 2 3 4 5 6 7 8 9 10 11 12 13 14 15 16 17 18 19
000
FTUS46 KHNX 290535
TAFMCE
TAF
KMCE 290535Z 2906/3006 14003KT 1/4SM FG VV001
      TEMPO 2917/2919 1SM BR BKN005
     FM291900 00000KT 2SM BR BKN005
     FM292000 VRB03KT 2SM BR SCT005 BKN200
     FM292100 33005KT 4SM HZ BKN200=

USA.gov is the U.S. government's official web portal to all federal, state and local government web resources and services.